Time;durP1;ratioP1;P1;durP2;ratioP2;P2;SDS_P1;SDS_P2;PMS_P1;PMS_P2;Temp;Humidity;BMP_temperature;BMP_pressure;BME280_temperature;BME280_humidity;BME280_pressure;Samples;Min_cycle;Max_cycle;Signal;HPM_P1;HPM_P2
2021/06/17 00:01:37;;;;;;;0.83;0.83;;;16.60;99.90;;;;;;4971964;28;20292;-67
2021/06/17 00:04:04;;;;;;;1.50;1.10;;;16.60;99.90;;;;;;4972735;28;20224;-67
2021/06/17 00:06:31;;;;;;;0.80;0.80;;;16.60;99.90;;;;;;4987612;28;20278;-67
2021/06/17 00:08:58;;;;;;;0.87;0.80;;;16.60;99.90;;;;;;4980692;28;20193;-67
2021/06/17 00:11:26;;;;;;;1.07;0.90;;;16.60;99.90;;;;;;4986231;28;20210;-66
2021/06/17 00:13:53;;;;;;;0.90;0.90;;;16.60;99.90;;;;;;4986355;28;20198;-65
2021/06/17 00:16:22;;;;;;;0.80;0.80;;;16.60;99.90;;;;;;4991369;28;20307;-66
2021/06/17 00:18:49;;;;;;;0.80;0.80;;;16.50;99.90;;;;;;4992144;28;20200;-65
2021/06/17 00:21:16;;;;;;;2.50;1.30;;;16.50;99.90;;;;;;4975801;28;20220;-67
2021/06/17 00:23:43;;;;;;;2.27;1.10;;;16.50;99.90;;;;;;4981522;28;20193;-66
2021/06/17 00:26:10;;;;;;;2.50;1.10;;;16.50;99.90;;;;;;4981912;28;20282;-66
2021/06/17 00:28:37;;;;;;;1.10;1.00;;;16.40;99.90;;;;;;4974104;28;20303;-65
2021/06/17 00:31:04;;;;;;;1.70;1.10;;;16.40;99.90;;;;;;4974687;28;20193;-66
2021/06/17 00:33:33;;;;;;;1.10;1.10;;;16.40;99.90;;;;;;4973318;28;20292;-65
2021/06/17 00:36:00;;;;;;;1.00;0.90;;;16.40;99.90;;;;;;4974423;28;20276;-66
2021/06/17 00:38:28;;;;;;;0.90;0.90;;;16.40;99.90;;;;;;4971764;28;20477;-66
2021/06/17 00:40:55;;;;;;;1.00;1.00;;;16.30;99.90;;;;;;4968471;28;20303;-66
2021/06/17 00:43:22;;;;;;;1.40;0.93;;;16.30;99.90;;;;;;4983166;28;20282;-66
2021/06/17 00:45:51;;;;;;;1.03;0.93;;;16.30;99.90;;;;;;4961723;28;20224;-66
2021/06/17 00:48:18;;;;;;;2.53;1.17;;;16.30;99.90;;;;;;4971312;28;20251;-66
2021/06/17 00:50:49;;;;;;;1.10;1.00;;;16.30;99.90;;;;;;4968746;28;20219;-66
2021/06/17 00:53:19;;;;;;;1.23;1.10;;;16.30;99.90;;;;;;4973815;28;20208;-66
2021/06/17 00:55:47;;;;;;;1.00;1.00;;;16.20;99.90;;;;;;4982936;28;20227;-66
2021/06/17 00:58:15;;;;;;;1.30;1.20;;;16.20;99.90;;;;;;4966355;28;20558;-66
2021/06/17 01:00:42;;;;;;;1.20;1.10;;;16.20;99.90;;;;;;4972785;28;20221;-67
2021/06/17 01:03:10;;;;;;;0.87;0.77;;;16.20;99.90;;;;;;4974679;28;20724;-66
2021/06/17 01:05:38;;;;;;;1.17;0.97;;;16.20;99.90;;;;;;4971037;28;20208;-66
2021/06/17 01:08:24;;;;;;;0.93;0.93;;;16.10;99.90;;;;;;4971900;28;20196;-67
2021/06/17 01:11:02;;;;;;;0.83;0.83;;;16.10;99.90;;;;;;4969722;28;20192;-66
2021/06/17 01:13:37;;;;;;;1.60;1.10;;;16.10;99.90;;;;;;4946622;28;20214;-66
2021/06/17 01:16:12;;;;;;;1.00;1.00;;;16.10;99.90;;;;;;4965694;28;20624;-65
2021/06/17 01:18:41;;;;;;;1.30;1.20;;;16.10;99.90;;;;;;4973315;28;20210;-66
2021/06/17 01:21:14;;;;;;;1.20;1.10;;;16.10;99.90;;;;;;4974718;28;20205;-67
2021/06/17 01:24:25;;;;;;;1.03;1.00;;;16.10;99.90;;;;;;4962047;28;20287;-67
2021/06/17 01:27:08;;;;;;;1.70;0.83;;;16.10;99.90;;;;;;4909522;29;20216;-66
2021/06/17 01:29:41;;;;;;;1.00;0.90;;;16.10;99.90;;;;;;4911164;29;20294;-66
2021/06/17 01:32:10;;;;;;;0.90;0.90;;;16.10;99.90;;;;;;4913182;29;20328;-66
2021/06/17 01:34:38;;;;;;;0.70;0.70;;;16.10;99.90;;;;;;4909934;29;20820;-66
2021/06/17 01:37:10;;;;;;;0.83;0.70;;;16.10;99.90;;;;;;4918185;29;20237;-66
2021/06/17 01:39:40;;;;;;;1.70;0.80;;;16.10;99.90;;;;;;4922825;29;20257;-67
2021/06/17 01:42:09;;;;;;;0.60;0.60;;;16.10;99.90;;;;;;4908698;29;20232;-66
2021/06/17 01:44:38;;;;;;;1.40;0.70;;;16.10;99.90;;;;;;4910713;29;20214;-66
2021/06/17 01:47:06;;;;;;;0.70;0.70;;;16.10;99.90;;;;;;4918064;29;20712;-65
2021/06/17 01:49:36;;;;;;;0.70;0.70;;;16.10;99.90;;;;;;4910223;29;20380;-65
2021/06/17 01:52:06;;;;;;;0.80;0.80;;;16.10;99.90;;;;;;4913663;29;20671;-67
2021/06/17 01:54:34;;;;;;;1.13;0.70;;;16.10;99.90;;;;;;4919055;29;20215;-66
2021/06/17 01:57:02;;;;;;;1.03;0.63;;;16.10;99.90;;;;;;4897118;29;20643;-65
2021/06/17 01:59:31;;;;;;;0.80;0.80;;;16.10;99.90;;;;;;4894872;29;20210;-65
2021/06/17 02:02:01;;;;;;;0.77;0.70;;;16.00;99.90;;;;;;4986631;28;20249;-66
2021/06/17 02:04:30;;;;;;;0.70;0.70;;;16.10;99.90;;;;;;4989517;28;20566;-67
2021/06/17 02:06:59;;;;;;;0.83;0.73;;;16.10;99.90;;;;;;4985742;28;20685;-65
2021/06/17 02:09:28;;;;;;;0.73;0.70;;;16.10;99.90;;;;;;4988513;28;20200;-66
2021/06/17 02:11:55;;;;;;;0.73;0.70;;;16.10;99.90;;;;;;4962501;28;20204;-67
2021/06/17 02:14:24;;;;;;;1.43;0.50;;;16.10;99.90;;;;;;4975227;28;20207;-66
2021/06/17 02:16:52;;;;;;;0.60;0.60;;;16.00;99.90;;;;;;4968339;28;20216;-65
2021/06/17 02:19:23;;;;;;;0.80;0.70;;;16.00;99.90;;;;;;4970590;28;20254;-65
2021/06/17 02:21:54;;;;;;;0.93;0.70;;;16.00;99.90;;;;;;4972173;28;20196;-66
2021/06/17 02:24:24;;;;;;;1.00;0.70;;;16.00;99.90;;;;;;4969896;28;20296;-65
2021/06/17 02:26:56;;;;;;;0.70;0.63;;;16.00;99.90;;;;;;4968781;28;20648;-65
2021/06/17 02:29:24;;;;;;;0.70;0.70;;;16.00;99.90;;;;;;4970328;28;20212;-66
2021/06/17 02:31:52;;;;;;;0.60;0.60;;;16.00;99.90;;;;;;4976091;28;20255;-65
2021/06/17 02:34:24;;;;;;;0.93;0.70;;;16.10;99.90;;;;;;4976188;28;20551;-66
2021/06/17 02:36:53;;;;;;;0.60;0.60;;;16.00;99.90;;;;;;4969887;28;20219;-66
2021/06/17 02:39:24;;;;;;;0.50;0.50;;;16.00;99.90;;;;;;4976414;28;20280;-66
2021/06/17 02:41:55;;;;;;;0.70;0.70;;;16.00;99.90;;;;;;4956709;28;20287;-65
2021/06/17 02:44:24;;;;;;;0.67;0.60;;;16.00;99.90;;;;;;4945906;28;20219;-66
2021/06/17 02:46:52;;;;;;;0.60;0.60;;;16.00;99.90;;;;;;4988184;28;20198;-67
2021/06/17 02:49:19;;;;;;;0.80;0.70;;;16.00;99.90;;;;;;4969893;28;20583;-67
2021/06/17 02:51:47;;;;;;;0.70;0.70;;;16.00;99.90;;;;;;4973241;28;20199;-67
2021/06/17 02:54:18;;;;;;;1.00;0.90;;;16.00;99.90;;;;;;4969923;28;20295;-65
2021/06/17 02:56:55;;;;;;;1.43;0.80;;;16.00;99.90;;;;;;4971141;28;20220;-66
2021/06/17 02:59:35;;;;;;;0.80;0.80;;;16.00;99.90;;;;;;4973577;28;20649;-67
2021/06/17 03:02:06;;;;;;;1.67;0.70;;;16.00;99.90;;;;;;4981412;28;20664;-65
2021/06/17 03:04:38;;;;;;;0.70;0.70;;;16.00;99.90;;;;;;4981858;28;20287;-66
2021/06/17 03:07:13;;;;;;;1.40;0.87;;;16.10;99.90;;;;;;4976297;28;20671;-66
2021/06/17 03:09:46;;;;;;;1.00;0.80;;;16.10;99.90;;;;;;4978383;28;20662;-65
2021/06/17 03:12:15;;;;;;;0.90;0.90;;;16.10;99.90;;;;;;4971771;28;20251;-67
2021/06/17 03:14:43;;;;;;;1.97;0.73;;;16.10;99.90;;;;;;4981423;28;20302;-66
2021/06/17 03:17:13;;;;;;;1.37;0.80;;;16.10;99.90;;;;;;4985067;28;20248;-66
2021/06/17 03:19:41;;;;;;;0.97;0.97;;;16.10;99.90;;;;;;4976888;28;20222;-65
2021/06/17 03:22:13;;;;;;;0.67;0.67;;;16.10;99.90;;;;;;4983654;28;20223;-67
2021/06/17 03:24:41;;;;;;;2.87;0.97;;;16.10;99.90;;;;;;4976879;28;20626;-66
2021/06/17 03:27:09;;;;;;;1.20;1.10;;;16.20;99.90;;;;;;4973574;28;20204;-67
2021/06/17 03:29:39;;;;;;;2.93;1.07;;;16.20;99.90;;;;;;4973874;28;20702;-65
2021/06/17 03:32:10;;;;;;;0.97;0.97;;;16.20;99.90;;;;;;4975413;28;20279;-65
2021/06/17 03:34:38;;;;;;;2.13;0.80;;;16.20;99.90;;;;;;4975258;28;20204;-66
2021/06/17 03:37:06;;;;;;;1.10;1.00;;;16.20;99.90;;;;;;4984445;28;20586;-66
2021/06/17 03:39:36;;;;;;;1.17;1.07;;;16.20;99.90;;;;;;4995772;28;20204;-66
2021/06/17 03:42:05;;;;;;;1.37;0.80;;;16.30;99.90;;;;;;4957573;28;20602;-65
2021/06/17 03:44:32;;;;;;;1.00;0.90;;;16.30;99.90;;;;;;4943633;28;20299;-67
2021/06/17 03:47:00;;;;;;;1.10;1.00;;;16.30;99.90;;;;;;4970428;28;20228;-65
2021/06/17 03:49:28;;;;;;;0.70;0.70;;;16.30;99.90;;;;;;4972595;28;20739;-65
2021/06/17 03:51:57;;;;;;;0.80;0.77;;;16.30;99.90;;;;;;4975488;28;20200;-66
2021/06/17 03:54:27;;;;;;;0.80;0.80;;;16.40;99.90;;;;;;4974596;28;20231;-66
2021/06/17 03:56:58;;;;;;;0.97;0.77;;;16.40;99.90;;;;;;4971670;28;20242;-67
2021/06/17 03:59:27;;;;;;;0.97;0.93;;;16.50;99.90;;;;;;4970667;28;20276;-67
2021/06/17 04:01:56;;;;;;;1.13;0.83;;;16.50;99.90;;;;;;4984930;28;20279;-65
2021/06/17 04:04:24;;;;;;;0.90;0.80;;;16.50;99.90;;;;;;4979404;28;20193;-66
2021/06/17 04:06:54;;;;;;;0.60;0.60;;;16.60;99.90;;;;;;4985566;28;20203;-66
2021/06/17 04:09:26;;;;;;;0.77;0.77;;;16.60;99.90;;;;;;4983836;28;20195;-67
2021/06/17 04:11:57;;;;;;;0.60;0.60;;;16.60;99.90;;;;;;4958954;28;20671;-65
2021/06/17 04:14:25;;;;;;;0.83;0.83;;;16.70;99.90;;;;;;4970199;28;20197;-67
2021/06/17 04:16:54;;;;;;;0.63;0.63;;;16.70;99.90;;;;;;4955631;28;20706;-67
2021/06/17 04:19:23;;;;;;;1.40;1.07;;;16.80;99.90;;;;;;4954511;28;20224;-65
2021/06/17 04:21:52;;;;;;;1.03;1.00;;;16.80;99.90;;;;;;4973862;28;20224;-67
2021/06/17 04:24:22;;;;;;;1.60;0.87;;;16.90;99.90;;;;;;4973978;28;20356;-65
2021/06/17 04:26:50;;;;;;;1.30;1.00;;;16.90;99.90;;;;;;4979324;28;20283;-66
2021/06/17 04:29:20;;;;;;;1.90;0.90;;;17.00;99.90;;;;;;4966129;28;20295;-66
2021/06/17 04:31:50;;;;;;;0.97;0.93;;;17.00;99.90;;;;;;4991517;28;20196;-66
2021/06/17 04:34:18;;;;;;;1.13;0.80;;;17.10;99.90;;;;;;4973314;28;20208;-66
2021/06/17 04:36:46;;;;;;;1.10;1.00;;;17.10;99.90;;;;;;4981546;28;20621;-66
2021/06/17 04:39:13;;;;;;;1.47;0.90;;;17.20;99.90;;;;;;4991183;28;20554;-66
2021/06/17 04:41:43;;;;;;;1.50;0.80;;;17.30;99.90;;;;;;4990235;28;20200;-66
2021/06/17 04:44:10;;;;;;;0.80;0.80;;;17.30;99.90;;;;;;4971173;28;20208;-66
2021/06/17 04:46:40;;;;;;;2.37;1.27;;;17.40;99.90;;;;;;4975357;28;20716;-66
2021/06/17 04:49:12;;;;;;;2.87;1.17;;;17.40;99.90;;;;;;4956886;28;20260;-66
2021/06/17 04:51:40;;;;;;;1.17;0.97;;;17.50;99.90;;;;;;4970992;28;20229;-66
2021/06/17 04:54:07;;;;;;;2.67;1.13;;;17.50;99.90;;;;;;4969715;28;20603;-66
2021/06/17 04:56:34;;;;;;;1.87;1.30;;;17.60;99.90;;;;;;4970067;28;20273;-67
2021/06/17 04:59:01;;;;;;;1.47;1.10;;;17.60;99.90;;;;;;4982710;28;20211;-65
2021/06/17 05:01:28;;;;;;;2.43;1.20;;;17.70;99.90;;;;;;4971091;28;20211;-66
2021/06/17 05:03:57;;;;;;;1.43;1.33;;;17.70;99.90;;;;;;4970755;28;20252;-65
2021/06/17 05:06:26;;;;;;;2.10;1.20;;;17.70;99.90;;;;;;4953099;28;20206;-67
2021/06/17 05:11:38;;;;;;;1.00;1.00;;;17.80;99.90;;;;;;4984870;28;20753;-66
2021/06/17 05:14:05;;;;;;;2.87;1.10;;;17.90;99.90;;;;;;4989321;28;20645;-66
2021/06/17 05:16:32;;;;;;;3.03;1.30;;;18.00;99.90;;;;;;4990262;28;20309;-65
2021/06/17 05:19:03;;;;;;;1.23;1.17;;;18.10;99.90;;;;;;4963913;28;20219;-65
2021/06/17 05:21:33;;;;;;;0.87;0.83;;;18.00;99.90;;;;;;4986703;28;20311;-65
2021/06/17 05:24:01;;;;;;;0.97;0.97;;;18.20;99.90;;;;;;4971260;28;20220;-66
2021/06/17 05:26:28;;;;;;;1.10;1.00;;;18.30;99.90;;;;;;4988870;28;20200;-66
2021/06/17 05:28:55;;;;;;;2.00;0.80;;;18.40;99.90;;;;;;4976374;28;20198;-66
2021/06/17 05:31:23;;;;;;;1.37;0.83;;;18.50;99.90;;;;;;4988499;28;20198;-65
2021/06/17 05:33:50;;;;;;;1.07;0.90;;;18.60;99.90;;;;;;4984019;28;20207;-65
2021/06/17 05:36:19;;;;;;;2.05;1.10;;;18.70;99.90;;;;;;4975156;28;20289;-65
2021/06/17 05:38:48;;;;;;;1.02;0.93;;;18.80;99.90;;;;;;4972648;28;20241;-66
2021/06/17 05:41:15;;;;;;;1.02;0.90;;;18.90;99.90;;;;;;4958925;28;20573;-66
2021/06/17 05:43:42;;;;;;;1.23;1.10;;;19.00;99.90;;;;;;4970974;28;20255;-66
2021/06/17 05:46:09;;;;;;;1.50;1.40;;;19.10;99.90;;;;;;4981156;28;20285;-66
2021/06/17 05:48:36;;;;;;;1.95;1.52;;;19.20;99.90;;;;;;4978480;28;20296;-65
2021/06/17 05:51:04;;;;;;;1.73;1.63;;;19.30;99.90;;;;;;4949448;28;20208;-66
2021/06/17 05:53:32;;;;;;;3.50;1.55;;;19.40;99.90;;;;;;4969461;28;20200;-66
2021/06/17 05:55:59;;;;;;;2.25;1.30;;;19.40;99.90;;;;;;4979915;28;21054;-65
2021/06/17 05:58:26;;;;;;;1.70;1.10;;;19.60;99.90;;;;;;4969777;28;20250;-65
2021/06/17 06:00:53;;;;;;;1.50;1.40;;;19.70;99.90;;;;;;4969386;28;20279;-65
2021/06/17 06:03:20;;;;;;;1.92;1.20;;;19.80;99.90;;;;;;4969660;28;20753;-65
2021/06/17 06:05:47;;;;;;;1.67;1.13;;;20.00;99.90;;;;;;4969000;28;20679;-66
2021/06/17 06:08:14;;;;;;;2.28;1.20;;;20.20;99.90;;;;;;4965667;28;20193;-70
2021/06/17 06:10:44;;;;;;;1.85;1.30;;;20.30;99.90;;;;;;4956503;28;20236;-70
2021/06/17 06:13:11;;;;;;;1.52;1.10;;;20.40;99.90;;;;;;4967879;28;20207;-71
2021/06/17 06:15:38;;;;;;;1.02;1.02;;;20.80;99.90;;;;;;4963547;28;20203;-71
2021/06/17 06:18:07;;;;;;;2.33;1.20;;;22.60;99.90;;;;;;4969182;28;20368;-71
2021/06/17 06:20:35;;;;;;;1.15;1.05;;;25.40;99.90;;;;;;4965926;28;20576;-70
2021/06/17 06:23:02;;;;;;;2.28;1.20;;;28.20;94.80;;;;;;4966106;28;20287;-71
2021/06/17 06:25:29;;;;;;;1.92;1.40;;;30.40;86.00;;;;;;4964845;28;20290;-70
2021/06/17 06:27:58;;;;;;;1.30;1.20;;;32.50;75.60;;;;;;4948791;28;20200;-70
2021/06/17 06:30:25;;;;;;;2.63;1.30;;;34.60;68.20;;;;;;4972139;28;20504;-71
2021/06/17 06:32:52;;;;;;;2.03;1.38;;;37.00;59.90;;;;;;4965184;28;20225;-71
2021/06/17 06:35:19;;;;;;;1.60;1.50;;;39.20;52.90;;;;;;4953205;28;20227;-70
2021/06/17 06:37:49;;;;;;;1.52;1.42;;;41.10;47.50;;;;;;4966870;28;20239;-71
2021/06/17 06:40:17;;;;;;;1.63;1.52;;;42.80;44.00;;;;;;4965781;28;20209;-71
2021/06/17 06:42:45;;;;;;;1.92;1.63;;;44.40;40.30;;;;;;4971644;28;20896;-70
2021/06/17 06:45:14;;;;;;;1.58;1.48;;;45.80;37.90;;;;;;4951986;28;20535;-71
2021/06/17 06:47:41;;;;;;;2.97;2.00;;;47.30;35.80;;;;;;4970831;28;20253;-70
2021/06/17 06:50:10;;;;;;;1.98;1.88;;;48.50;33.70;;;;;;4965385;28;20204;-70
2021/06/17 06:52:37;;;;;;;3.20;1.88;;;49.50;32.10;;;;;;4963444;28;20211;-70
2021/06/17 06:55:05;;;;;;;2.45;1.88;;;50.20;30.60;;;;;;4966730;28;20203;-71
2021/06/17 06:57:32;;;;;;;2.45;1.83;;;50.80;29.80;;;;;;4962339;28;20602;-70
2021/06/17 06:59:59;;;;;;;2.35;2.15;;;51.40;28.90;;;;;;4966551;28;20211;-70
2021/06/17 07:02:28;;;;;;;2.15;2.00;;;51.80;28.10;;;;;;4966123;28;20566;-70
2021/06/17 07:04:55;;;;;;;2.42;2.22;;;51.80;27.50;;;;;;4960572;28;20288;-70
2021/06/17 07:07:22;;;;;;;2.53;2.13;;;51.80;27.20;;;;;;4965430;28;20594;-68
2021/06/17 07:09:50;;;;;;;2.30;2.05;;;51.60;26.70;;;;;;4972525;28;20693;-70
2021/06/17 07:12:17;;;;;;;1.92;1.83;;;51.20;26.70;;;;;;4962498;28;20492;-69
2021/06/17 07:14:45;;;;;;;2.65;1.90;;;50.70;27.10;;;;;;4966526;28;20666;-70
2021/06/17 07:17:12;;;;;;;2.58;2.38;;;49.90;27.10;;;;;;4971118;28;20704;-70
2021/06/17 07:19:40;;;;;;;3.58;2.38;;;48.30;27.60;;;;;;4967074;28;20598;-70
2021/06/17 07:22:07;;;;;;;2.75;2.13;;;46.20;28.40;;;;;;4974102;28;20219;-69
2021/06/17 07:24:34;;;;;;;2.22;2.03;;;44.10;29.50;;;;;;4952371;28;20219;-69
2021/06/17 07:27:02;;;;;;;2.00;1.90;;;42.30;30.50;;;;;;4969359;28;20651;-69
2021/06/17 07:29:30;;;;;;;1.85;1.75;;;40.80;31.80;;;;;;4972863;28;20211;-68
2021/06/17 07:31:57;;;;;;;2.10;1.98;;;39.40;32.60;;;;;;4970348;28;20196;-68
2021/06/17 07:34:25;;;;;;;2.55;1.92;;;38.10;33.50;;;;;;4965239;28;20666;-68
2021/06/17 07:36:53;;;;;;;2.53;2.33;;;37.00;34.70;;;;;;4964359;28;20292;-68
2021/06/17 07:39:20;;;;;;;1.92;1.73;;;36.00;35.70;;;;;;4977655;28;20231;-69
2021/06/17 07:41:47;;;;;;;1.73;1.63;;;35.00;36.60;;;;;;4974778;28;20200;-68
2021/06/17 07:44:14;;;;;;;1.60;1.50;;;34.30;37.60;;;;;;4965767;28;20456;-68
2021/06/17 07:46:41;;;;;;;1.98;1.30;;;33.80;38.60;;;;;;4968684;28;20216;-69
2021/06/17 07:49:08;;;;;;;1.92;1.80;;;33.30;39.20;;;;;;4967857;28;20220;-68
2021/06/17 07:51:37;;;;;;;3.08;1.50;;;32.80;39.70;;;;;;4970182;28;20200;-68
2021/06/17 07:54:05;;;;;;;5.05;2.45;;;32.40;40.10;;;;;;4972144;28;20306;-68
2021/06/17 07:56:33;;;;;;;3.05;1.75;;;32.10;40.50;;;;;;4968622;28;20287;-68
2021/06/17 07:59:00;;;;;;;1.85;1.60;;;31.70;41.00;;;;;;4980197;28;20198;-69
2021/06/17 08:01:27;;;;;;;1.48;1.38;;;31.40;41.60;;;;;;4971593;28;20705;-68
2021/06/17 08:03:55;;;;;;;1.80;1.40;;;31.10;42.00;;;;;;4976435;28;20200;-69
2021/06/17 08:06:22;;;;;;;1.80;1.70;;;30.90;42.30;;;;;;4969995;28;20208;-69
2021/06/17 08:08:49;;;;;;;1.60;1.42;;;30.70;42.60;;;;;;4975466;28;20391;-69
2021/06/17 08:11:17;;;;;;;1.45;1.35;;;30.50;43.00;;;;;;4969190;28;20197;-68
2021/06/17 08:13:44;;;;;;;1.80;1.30;;;30.30;43.40;;;;;;4971334;28;20532;-69
2021/06/17 08:16:11;;;;;;;1.50;1.23;;;30.30;43.90;;;;;;4968983;28;20626;-69
2021/06/17 08:18:38;;;;;;;3.17;1.40;;;30.20;44.10;;;;;;4971128;28;20275;-69
2021/06/17 08:21:05;;;;;;;1.60;1.50;;;30.00;44.40;;;;;;4972834;28;20570;-69
2021/06/17 08:23:32;;;;;;;1.48;1.30;;;30.00;44.60;;;;;;4970861;28;20428;-69
2021/06/17 08:25:59;;;;;;;1.95;1.20;;;30.00;45.00;;;;;;4964822;28;20302;-69
2021/06/17 08:28:30;;;;;;;1.50;1.30;;;29.90;45.00;;;;;;4964565;28;20869;-69
2021/06/17 08:30:57;;;;;;;1.98;1.40;;;29.90;45.30;;;;;;4968052;28;20208;-69
2021/06/17 08:33:24;;;;;;;1.35;1.25;;;29.90;45.30;;;;;;4978072;28;20192;-68
2021/06/17 08:35:52;;;;;;;1.52;1.45;;;29.90;45.30;;;;;;4966862;28;20335;-68
2021/06/17 08:38:20;;;;;;;2.83;1.80;;;29.80;45.50;;;;;;4969803;28;20516;-69
2021/06/17 08:40:47;;;;;;;1.50;1.40;;;29.80;45.60;;;;;;4965524;28;20201;-68
2021/06/17 08:43:15;;;;;;;2.35;1.35;;;29.80;45.50;;;;;;4970979;28;20796;-69
2021/06/17 08:45:43;;;;;;;2.50;1.50;;;30.00;45.40;;;;;;4968778;28;20282;-68
2021/06/17 08:48:10;;;;;;;2.05;1.60;;;30.00;45.30;;;;;;4972565;28;20722;-69
2021/06/17 08:50:37;;;;;;;4.22;1.40;;;29.90;45.20;;;;;;4970337;28;20197;-68
2021/06/17 08:53:05;;;;;;;1.30;1.20;;;29.90;45.20;;;;;;4969023;28;20232;-68
2021/06/17 08:55:34;;;;;;;1.60;1.50;;;29.80;45.10;;;;;;4974157;28;20814;-69
2021/06/17 08:58:01;;;;;;;1.42;1.38;;;30.00;45.20;;;;;;4948459;28;20750;-69
2021/06/17 09:00:34;;;;;;;1.50;1.40;;;29.90;45.20;;;;;;4968608;28;20208;-68
2021/06/17 09:03:05;;;;;;;2.85;1.58;;;29.90;45.60;;;;;;4968638;28;20228;-69
2021/06/17 09:05:34;;;;;;;1.45;1.35;;;29.90;44.70;;;;;;4977282;28;20535;-69
2021/06/17 09:08:02;;;;;;;3.67;1.20;;;29.90;44.80;;;;;;4969162;28;20225;-69
2021/06/17 09:10:30;;;;;;;1.40;1.15;;;29.80;45.00;;;;;;4966006;28;20758;-69
2021/06/17 09:12:59;;;;;;;3.05;1.30;;;29.80;45.20;;;;;;4971165;28;20208;-69
2021/06/17 09:15:33;;;;;;;2.60;1.35;;;29.80;45.30;;;;;;4972118;28;20195;-69
2021/06/17 09:18:13;;;;;;;2.45;1.08;;;29.80;44.90;;;;;;4968024;28;20196;-68
2021/06/17 09:20:45;;;;;;;1.70;1.42;;;29.80;45.10;;;;;;4970327;28;20200;-68
2021/06/17 09:23:25;;;;;;;1.42;1.30;;;29.80;45.00;;;;;;4968632;28;20232;-68
2021/06/17 09:25:53;;;;;;;1.85;1.52;;;29.80;45.10;;;;;;4949305;28;20570;-69
2021/06/17 09:28:20;;;;;;;1.73;1.10;;;29.70;45.10;;;;;;4967018;28;20446;-69
2021/06/17 09:30:47;;;;;;;1.55;1.27;;;29.70;45.10;;;;;;4974466;28;20299;-69
2021/06/17 09:33:16;;;;;;;1.17;1.10;;;29.80;44.60;;;;;;4968699;28;20203;-68
2021/06/17 09:35:55;;;;;;;1.80;1.30;;;29.80;44.50;;;;;;4942828;28;20207;-68
2021/06/17 09:38:24;;;;;;;2.13;1.50;;;29.90;44.40;;;;;;4970984;28;20251;-68
2021/06/17 09:40:52;;;;;;;1.38;1.30;;;29.90;44.30;;;;;;4968710;28;20532;-68
2021/06/17 09:43:22;;;;;;;1.77;1.25;;;29.90;44.40;;;;;;4970623;28;20247;-69
2021/06/17 09:45:58;;;;;;;1.90;1.25;;;29.90;44.50;;;;;;4966661;28;20657;-69
2021/06/17 09:48:36;;;;;;;1.23;1.13;;;30.00;44.60;;;;;;4967182;28;21332;-68
2021/06/17 09:51:33;;;;;;;2.15;1.15;;;30.10;44.50;;;;;;4975930;28;20282;-68
2021/06/17 09:54:18;;;;;;;2.15;1.23;;;30.10;44.60;;;;;;4946616;28;20471;-68
2021/06/17 09:56:50;;;;;;;9.03;1.70;;;30.10;44.50;;;;;;4961922;28;20465;-68
2021/06/17 09:59:34;;;;;;;1.40;1.30;;;30.20;43.60;;;;;;4968640;28;20640;-68
2021/06/17 10:02:01;;;;;;;4.97;1.20;;;30.20;43.90;;;;;;4966717;28;20511;-68
2021/06/17 10:04:29;;;;;;;1.30;1.20;;;30.20;43.80;;;;;;4967462;28;20200;-68
2021/06/17 10:07:00;;;;;;;1.20;1.05;;;30.20;43.50;;;;;;4973017;28;20708;-68
2021/06/17 10:09:28;;;;;;;1.75;1.10;;;30.30;43.60;;;;;;4964186;28;20216;-72
2021/06/17 10:11:57;;;;;;;1.98;1.55;;;30.30;43.50;;;;;;4966059;28;20205;-72
2021/06/17 10:14:24;;;;;;;2.78;1.20;;;30.40;43.50;;;;;;4965829;28;20681;-72
2021/06/17 10:16:52;;;;;;;2.35;1.05;;;30.40;43.50;;;;;;4977662;28;20642;-71
2021/06/17 10:19:19;;;;;;;1.13;1.10;;;30.40;43.30;;;;;;4968937;28;20200;-72
2021/06/17 10:21:49;;;;;;;1.15;1.15;;;30.40;42.50;;;;;;4968063;28;20197;-71
2021/06/17 10:24:18;;;;;;;1.23;1.13;;;30.60;42.20;;;;;;4973666;28;20204;-72
2021/06/17 10:26:46;;;;;;;1.42;1.33;;;30.60;41.50;;;;;;4949697;28;20211;-70
2021/06/17 10:29:34;;;;;;;1.48;1.38;;;30.70;41.10;;;;;;4970255;28;20216;-72
2021/06/17 10:32:02;;;;;;;1.98;1.30;;;30.70;40.60;;;;;;4964708;28;20717;-72
2021/06/17 10:34:51;;;;;;;1.20;1.10;;;30.70;40.40;;;;;;4966412;28;20209;-72
2021/06/17 10:37:22;;;;;;;1.70;1.20;;;30.80;40.80;;;;;;4963891;28;20709;-72
2021/06/17 10:39:52;;;;;;;1.52;1.27;;;30.80;40.30;;;;;;4973396;28;20199;-72
2021/06/17 10:42:30;;;;;;;1.30;1.20;;;30.80;40.30;;;;;;4969879;28;20200;-71
2021/06/17 10:44:59;;;;;;;0.90;0.90;;;30.90;40.20;;;;;;4973747;28;20500;-72
2021/06/17 10:48:11;;;;;;;1.55;1.00;;;31.10;40.20;;;;;;4947689;28;20594;-72
2021/06/17 10:50:51;;;;;;;1.08;1.00;;;30.90;40.50;;;;;;4965323;28;20698;-72
2021/06/17 10:53:33;;;;;;;7.43;1.45;;;30.90;40.10;;;;;;4977197;28;20696;-72
2021/06/17 10:56:06;;;;;;;1.30;1.20;;;30.90;40.70;;;;;;4963016;28;21009;-70
2021/06/17 10:59:04;;;;;;;1.05;1.05;;;31.10;40.30;;;;;;4967077;28;20307;-69
2021/06/17 11:01:34;;;;;;;2.78;1.20;;;31.30;39.20;;;;;;4971295;28;21432;-71
2021/06/17 11:04:15;;;;;;;2.35;1.33;;;31.40;39.20;;;;;;4970396;28;20211;-71
2021/06/17 11:10:05;;;;;;;1.73;1.10;;;31.50;38.40;;;;;;4967466;28;20318;-71
2021/06/17 11:12:54;;;;;;;1.40;1.30;;;31.50;38.50;;;;;;4970382;28;20211;-70
2021/06/17 11:15:41;;;;;;;2.20;1.45;;;31.60;38.30;;;;;;4967394;28;20618;-70
2021/06/17 11:18:08;;;;;;;1.30;1.20;;;31.70;38.30;;;;;;4968617;28;20557;-71
2021/06/17 11:20:39;;;;;;;2.70;1.10;;;31.90;38.60;;;;;;4967838;28;20446;-75
2021/06/17 11:23:06;;;;;;;1.88;1.10;;;31.80;38.80;;;;;;4970010;28;20436;-76
2021/06/17 11:25:38;;;;;;;1.45;1.20;;;31.90;38.70;;;;;;4975702;28;20287;-76
2021/06/17 11:28:07;;;;;;;1.77;1.40;;;31.80;38.30;;;;;;4952703;28;20734;-76
2021/06/17 11:30:56;;;;;;;2.65;1.30;;;31.70;38.00;;;;;;4975765;28;20746;-77
2021/06/17 11:33:48;;;;;;;1.15;1.15;;;31.60;38.20;;;;;;4954131;28;20827;-75
2021/06/17 11:36:18;;;;;;;3.38;1.50;;;31.60;38.30;;;;;;4874381;29;20202;-75
2021/06/17 11:38:49;;;;;;;1.63;1.10;;;31.50;38.50;;;;;;4892087;29;20303;-77
2021/06/17 11:41:21;;;;;;;2.40;1.50;;;31.60;38.70;;;;;;4891852;29;20363;-76
2021/06/17 11:43:57;;;;;;;1.98;1.48;;;31.70;38.60;;;;;;4877044;29;20234;-73
2021/06/17 11:46:30;;;;;;;1.10;1.10;;;31.70;38.70;;;;;;4894072;29;20653;-73
2021/06/17 11:49:00;;;;;;;1.73;1.50;;;31.80;38.80;;;;;;4883596;29;20601;-74
2021/06/17 11:51:40;;;;;;;1.40;1.30;;;32.40;38.50;;;;;;4893196;29;20215;-73
2021/06/17 11:54:07;;;;;;;1.15;1.10;;;33.10;38.00;;;;;;4904206;29;20222;-74
2021/06/17 11:56:35;;;;;;;1.23;1.20;;;33.70;37.80;;;;;;4881362;29;20636;-74
2021/06/17 11:59:24;;;;;;;1.38;1.27;;;34.30;37.50;;;;;;4897541;29;20246;-73
2021/06/17 12:02:19;;;;;;;1.80;1.30;;;34.70;36.50;;;;;;4909539;29;20202;-74
2021/06/17 12:04:54;;;;;;;1.88;1.77;;;35.10;36.30;;;;;;4892991;29;20210;-73
2021/06/17 12:07:27;;;;;;;1.65;1.60;;;35.20;35.90;;;;;;4901057;29;20236;-74
2021/06/17 12:09:55;;;;;;;1.70;1.60;;;35.30;36.00;;;;;;4887872;29;20637;-72
2021/06/17 12:12:26;;;;;;;1.80;1.70;;;35.20;36.10;;;;;;4916067;28;20287;-73
2021/06/17 12:14:55;;;;;;;1.88;1.77;;;35.30;35.60;;;;;;4975189;28;20206;-73
2021/06/17 12:17:30;;;;;;;1.67;1.58;;;35.30;35.60;;;;;;4958715;28;20453;-72
2021/06/17 12:19:58;;;;;;;2.25;1.63;;;35.60;35.40;;;;;;4948269;28;20230;-72
2021/06/17 12:22:26;;;;;;;2.22;1.67;;;35.50;35.40;;;;;;4974458;28;20688;-73
2021/06/17 12:24:54;;;;;;;1.60;1.50;;;35.60;35.20;;;;;;4980782;28;20250;-72
2021/06/17 12:27:21;;;;;;;2.25;2.10;;;35.60;35.20;;;;;;4967417;28;20200;-73
2021/06/17 12:29:50;;;;;;;2.03;1.85;;;35.60;35.20;;;;;;4973563;28;20215;-74
2021/06/17 12:32:32;;;;;;;1.83;1.73;;;35.50;35.30;;;;;;4978521;28;20283;-73
2021/06/17 12:35:11;;;;;;;1.70;1.60;;;35.30;35.50;;;;;;4962600;28;20505;-74
2021/06/17 12:37:56;;;;;;;1.95;1.85;;;35.30;35.40;;;;;;4970699;28;20240;-73
2021/06/17 12:40:28;;;;;;;1.70;1.60;;;34.80;35.50;;;;;;4958553;28;20204;-73
2021/06/17 12:43:11;;;;;;;1.50;1.40;;;34.30;35.90;;;;;;4969357;28;20538;-73
2021/06/17 12:45:40;;;;;;;2.75;1.63;;;33.90;36.40;;;;;;4975720;28;20235;-72
2021/06/17 12:48:31;;;;;;;2.85;1.95;;;33.50;36.90;;;;;;4953339;28;20377;-72
2021/06/17 12:53:59;;;;;;;1.63;1.55;;;32.70;37.90;;;;;;4969998;28;20200;-74
2021/06/17 12:56:26;;;;;;;1.60;1.50;;;32.40;38.40;;;;;;4967478;28;20203;-73
2021/06/17 12:58:54;;;;;;;1.60;1.50;;;32.10;38.90;;;;;;4949139;28;20208;-74
2021/06/17 13:01:23;;;;;;;1.70;1.60;;;31.90;39.30;;;;;;4974783;28;20288;-73
2021/06/17 13:03:51;;;;;;;1.50;1.40;;;31.60;39.70;;;;;;4944739;28;20513;-74
2021/06/17 13:06:37;;;;;;;1.40;1.35;;;31.60;39.80;;;;;;4968357;28;20445;-74
2021/06/17 13:09:06;;;;;;;1.40;1.40;;;31.60;39.90;;;;;;4954029;28;20622;-75
2021/06/17 13:11:34;;;;;;;1.92;1.55;;;31.40;40.20;;;;;;4966773;28;20201;-73
2021/06/17 13:14:03;;;;;;;1.60;1.50;;;31.30;40.50;;;;;;4967941;28;20197;-74